Metlakatla, Alaska
Current Conditions -  °F | °C
As of 2:36 PM on Friday 19 Dec 2014 (Local Time) from PAMM Reporting Station
Overcast Overcast  
Wind Chill: 35°   Ceiling: 3300
Heat Index: 43°   Visibility: 10mi
Dew Point: 36°   Wind: 16mph
Humidity: 76%   Direction: 120°ESE
Pressure: 29.32"   Gusts: 28mph
Location:  55.11°N, 131.58°W
Report Text: PAMM 192336Z AUTO 12014G24KT 10SM SCT025 OVC033 06/02 A2932 RMK AO1
Loading
Personal Weather Stations






























Interactive Weather Map New forecast layout! Learn more

10-Day Weather Forecast

Advertisements
Track Severe Weather on mobile